This is the latest recevied weather packets stored in our database for station/object W9WRP. If no packets are shown the sender has not sent any weather packets the latest 10 day(s).
| Time | Temp. | Humidity | Pressure | Rain* | Wind** | Luminosity | Snow |
|---|---|---|---|---|---|---|---|
| 1788151918 | 22.22° C | 85% | 1014.5 hPa | 0 mm | - | 0 W/m² | - |
| 1788151613 | 22.22° C | 85% | 1014.5 hPa | 0 mm | - | 0 W/m² | - |
| 1788151308 | 22.22° C | 88% | 1014.7 hPa | 1.78 mm | - | 0 W/m² | - |
| 1788151003 | 21.67° C | 88% | 1015.1 hPa | 4.83 mm | - | 0 W/m² | - |
| 1788150699 | 23.33° C | 83% | 1014 hPa | 3.05 mm | - | 0 W/m² | - |
| 1788150397 | 26.67° C | 66% | 1014 hPa | 0 mm | - | 0 W/m² | - |
| 1788150092 | 28.33° C | 54% | 1013.9 hPa | 0 mm | - | 0 W/m² | - |
| 1788149787 | 30.56° C | 50% | 1014 hPa | 0 mm | - | 0 W/m² | - |
| 1788149486 | 35° C | 34% | 1012.5 hPa | 0 mm | - | 0 W/m² | - |
| 1788149181 | 35.56° C | 33% | 1012.4 hPa | 0 mm | - | 0 W/m² | - |
| 1788148875 | 35.56° C | 33% | 1012.8 hPa | 0 mm | - | 0 W/m² | - |
| 1788148573 | 35.56° C | 33% | 1012.1 hPa | 0 mm | - | 0 W/m² | - |
| 1788148263 | 35.56° C | 33% | 1011.8 hPa | 0 mm | - | 0 W/m² | - |
| 1788147962 | 35.56° C | 32% | 1012.1 hPa | 0 mm | - | 0 W/m² | - |
| 1788147657 | 35.56° C | 32% | 1012.2 hPa | 0 mm | - | 0 W/m² | - |
| 1788147353 | 35.56° C | 32% | 1012.2 hPa | 0 mm | - | 0 W/m² | - |
| 1788147048 | 35.56° C | 32% | 1012 hPa | 0 mm | - | 0 W/m² | - |
| 1788146742 | 36.11° C | 32% | 1012 hPa | 0 mm | - | 0 W/m² | - |
| 1788146438 | 36.11° C | 31% | 1012.3 hPa | 0 mm | - | 0 W/m² | - |
| 1788146137 | 36.11° C | 31% | 1012.2 hPa | 0 mm | - | 0 W/m² | - |
| 1788145836 | 36.11° C | 30% | 1012.1 hPa | 0 mm | - | 0 W/m² | - |
| 1788145535 | 36.11° C | 30% | 1012 hPa | 0 mm | - | 0 W/m² | - |
| 1788145235 | 36.11° C | 30% | 1012 hPa | 0 mm | - | 0 W/m² | - |
| 1788144927 | 36.11° C | 30% | 1011.5 hPa | 0 mm | - | 0 W/m² | - |
| 1788144623 | 36.11° C | 30% | 1011.7 hPa | 0 mm | - | 0 W/m² | - |
* Rain latest hour (hover to see other rain measurements)
** Current wind speed in m/s (hover to see current wind gust speed)